English Bay — VRYQ9 — position and weather

sailwx.info

Track history (hours):
 
Tides and Currents Weather Stations Pressure Air Temp Water Temp Dewpoint Dewpoint Depression Visibility Wind Speed Wind Dir Waves Ship Positions

English Bay

Last reported at 2017-Nov-11 11:51 UTC. Time now 2017-Nov-24 20:43 UTC.
Position N 31°06' E 122°20'.
Warning: this ship's position is 13 days out of date.

Length 177 m; draft 9.8 m.

Type: Cargo ship. MMSI: 477101000.

Date/timePositionNaut miles runAvg speedWind from/ knotsBaromVisibWave heightAir tempDewpointWater temp
2017-Nov-11 11:51N 31°06' E 122°20'513.0
2017-Nov-11 11:27N 31°08' E 122°14'612.4
2017-Nov-11 10:59N 31°12' E 122°09'511.6
2017-Nov-11 10:30N 31°14' E 122°03'611.7
2017-Nov-11 10:00N 31°15' E 121°56'511.0
2017-Nov-11 09:31N 31°17' E 121°50'510.6
2017-Nov-11 09:00N 31°19' E 121°44'5 9.1
2017-Nov-11 08:30N 31°21' E 121°40'5 9.8
2017-Nov-11 08:00N 31°23' E 121°35'3 6.9
2017-Nov-11 07:30N 31°25' E 121°31'3 6.7
2017-Nov-11 07:00N 31°27' E 121°28'4 8.9
2017-Nov-11 06:30N 31°30' E 121°25'611.7
2017-Nov-11 06:00N 31°34' E 121°19'611.7
2017-Nov-11 05:30N 31°38' E 121°15'1 1.3
2017-Nov-11 04:56N 31°39' E 121°15'0 0.0
2017-Nov-11 04:26N 31°39' E 121°15'0 0.0
2017-Nov-11 03:59N 31°39' E 121°15'0 0.0
2017-Nov-11 03:29N 31°39' E 121°15'0 0.0
2017-Nov-11 02:59N 31°39' E 121°15'0 0.1
2017-Nov-11 02:14N 31°39' E 121°15'0 0.0
2017-Nov-11 01:41N 31°39' E 121°15'0 0.0
2017-Nov-11 01:29N 31°39' E 121°15'0 0.0
2017-Nov-11 00:59N 31°39' E 121°15'1 1.9
2017-Nov-11 00:30N 31°39' E 121°14'4 8.9
2017-Nov-11 00:01N 31°42' E 121°09'1 0.8
2017-Nov-10 23:20N 31°42' E 121°09'0 0.0
2017-Nov-10 22:20N 31°42' E 121°09'0 0.0
2017-Nov-10 21:53N 31°42' E 121°09'0 0.0
2017-Nov-10 21:29N 31°42' E 121°09'0 0.0
2017-Nov-10 20:50N 31°42' E 121°09'0 0.0
2017-Nov-10 20:29N 31°42' E 121°09'0 0.0
2017-Nov-10 19:56N 31°42' E 121°09'0 0.0
2017-Nov-10 19:29N 31°42' E 121°09'0 0.0
2017-Nov-10 18:56N 31°42' E 121°09'0 0.0
2017-Nov-10 18:29N 31°42' E 121°09'0 0.0
2017-Nov-10 17:41N 31°42' E 121°09'0 0.0
2017-Nov-10 17:14N 31°42' E 121°09'0 0.0
2017-Nov-10 16:59N 31°42' E 121°09'0 0.0
2017-Nov-10 16:08N 31°42' E 121°09'0 0.0
2017-Nov-10 15:59N 31°42' E 121°09'0 0.0
2017-Nov-10 15:29N 31°42' E 121°09'0 0.0
2017-Nov-10 14:53N 31°42' E 121°09'0 0.0
2017-Nov-10 14:29N 31°42' E 121°09'0 0.0
2017-Nov-10 13:59N 31°42' E 121°09'0 0.0
2017-Nov-10 13:20N 31°42' E 121°09'0 0.0
2017-Nov-10 12:56N 31°42' E 121°09'0 0.0
2017-Nov-10 12:26N 31°42' E 121°09'0 0.0
2017-Nov-10 11:53N 31°42' E 121°09'0 0.0
2017-Nov-10 11:29N 31°42' E 121°09'0 0.0
2017-Nov-10 10:59N 31°42' E 121°09'0 0.0
2017-Nov-10 10:23N 31°42' E 121°09'0 0.0
2017-Nov-10 09:59N 31°42' E 121°09'0 0.0
2017-Nov-10 09:29N 31°42' E 121°09'0 0.0
2017-Nov-10 08:41N 31°42' E 121°09'0 0.0
2017-Nov-10 08:23N 31°42' E 121°09'0 0.0
2017-Nov-10 07:56N 31°42' E 121°09'0 0.0
2017-Nov-10 07:26N 31°42' E 121°09'0 0.0
2017-Nov-10 06:47N 31°42' E 121°09'0 0.0
2017-Nov-10 06:23N 31°42' E 121°09'0 0.0
2017-Nov-10 05:59N 31°42' E 121°09'0 0.0
2017-Nov-10 05:26N 31°42' E 121°09'0 0.0
2017-Nov-10 04:41N 31°42' E 121°09'0 0.0
2017-Nov-10 04:14N 31°42' E 121°09'0 0.0
2017-Nov-10 03:47N 31°42' E 121°09'0 0.0
2017-Nov-10 03:29N 31°42' E 121°09'0 0.0
2017-Nov-10 02:59N 31°42' E 121°09'0 0.0
2017-Nov-10 02:29N 31°42' E 121°09'0 0.0
2017-Nov-10 01:53N 31°42' E 121°09'0 0.0
2017-Nov-10 01:29N 31°42' E 121°09'0 0.0
2017-Nov-10 00:59N 31°42' E 121°09'0 0.0
2017-Nov-10 00:23N 31°42' E 121°09'0 0.0
2017-Nov-09 23:59N 31°42' E 121°09'0 0.0
2017-Nov-09 23:26N 31°42' E 121°09'0 0.0
2017-Nov-09 22:59N 31°42' E 121°09'0 0.0
2017-Nov-09 22:20N 31°42' E 121°09'0 0.0
2017-Nov-09 21:56N 31°42' E 121°09'0 0.0
2017-Nov-09 21:29N 31°42' E 121°09'0 0.0
2017-Nov-09 20:59N 31°42' E 121°09'0 0.0
2017-Nov-09 20:17N 31°42' E 121°09'0 0.0
2017-Nov-09 19:59N 31°42' E 121°09'0 0.0
2017-Nov-09 19:29N 31°42' E 121°09'0 0.0
2017-Nov-09 18:56N 31°42' E 121°09'0 0.0
2017-Nov-09 18:14N 31°42' E 121°09'0 0.0
2017-Nov-09 17:38N 31°42' E 121°09'0 0.0
2017-Nov-09 17:23N 31°42' E 121°09'0 0.0
2017-Nov-09 16:59N 31°42' E 121°09'0 0.0
2017-Nov-09 16:11N 31°42' E 121°09'0 0.0
2017-Nov-09 15:59N 31°42' E 121°09'0 0.0
2017-Nov-09 15:23N 31°42' E 121°09'0 0.0
2017-Nov-09 13:38N 31°42' E 121°09'0 0.0
2017-Nov-09 13:29N 31°42' E 121°09'0 0.0
2017-Nov-09 12:44N 31°42' E 121°09'0 0.0
2017-Nov-09 12:29N 31°42' E 121°09'0 0.0
2017-Nov-09 11:56N 31°42' E 121°09'0 0.0
2017-Nov-09 11:23N 31°42' E 121°09'0 0.0
2017-Nov-09 10:47N 31°42' E 121°09'0 0.0
2017-Nov-09 10:26N 31°42' E 121°09'0 0.0
2017-Nov-09 09:59N 31°42' E 121°09'0 0.0
2017-Nov-09 09:23N 31°42' E 121°09'0 0.0
2017-Nov-09 08:56N 31°42' E 121°09'0 0.0
2017-Nov-09 08:14N 31°42' E 121°09'0 0.0
2017-Nov-09 07:50N 31°42' E 121°09'0 0.0
2017-Nov-09 07:20N 31°42' E 121°09'0 0.0
2017-Nov-09 06:50N 31°42' E 121°09'0 0.0
2017-Nov-09 05:20N 31°42' E 121°09'0 0.0
2017-Nov-09 04:56N 31°42' E 121°09'0 0.0
2017-Nov-09 04:17N 31°42' E 121°09'0 0.0
2017-Nov-09 03:59N 31°42' E 121°09'0 0.0
2017-Nov-09 03:02N 31°42' E 121°09'0 0.0
2017-Nov-09 02:14N 31°42' E 121°09'0 0.0
2017-Nov-09 01:32N 31°42' E 121°09'0 0.0
2017-Nov-09 01:17N 31°42' E 121°09'0 0.0
2017-Nov-09 00:44N 31°42' E 121°09'0 0.0
2017-Nov-09 00:23N 31°42' E 121°09'0 0.0
2017-Nov-08 23:59N 31°42' E 121°09'0 0.0
2017-Nov-08 23:26N 31°42' E 121°09'0 0.0
2017-Nov-08 22:59N 31°42' E 121°09'0 0.0
2017-Nov-08 22:29N 31°42' E 121°09'0 0.0
2017-Nov-08 21:59N 31°42' E 121°09'0 0.0
2017-Nov-08 21:29N 31°42' E 121°09'0 0.0
2017-Nov-08 20:53N 31°42' E 121°09'0 0.0
2017-Nov-08 20:26N 31°42' E 121°09'0 0.0
2017-Nov-08 19:56N 31°42' E 121°09'0 0.0
2017-Nov-08 19:29N 31°42' E 121°09'0 0.0
2017-Nov-08 18:59N 31°42' E 121°09'0 0.0
2017-Nov-08 18:29N 31°42' E 121°09'0 0.0
2017-Nov-08 17:59N 31°42' E 121°09'0 0.0
2017-Nov-08 17:20N 31°42' E 121°09'0 0.0
2017-Nov-08 16:56N 31°42' E 121°09'0 0.0
2017-Nov-08 16:29N 31°42' E 121°09'0 0.0
2017-Nov-08 15:56N 31°42' E 121°09'0 0.0
2017-Nov-08 15:29N 31°42' E 121°09'0 0.0
2017-Nov-08 14:50N 31°42' E 121°09'0 0.0
2017-Nov-08 14:29N 31°42' E 121°09'0 0.0
2017-Nov-08 13:56N 31°42' E 121°09'0 0.0
2017-Nov-08 13:20N 31°42' E 121°09'0 0.0
2017-Nov-08 12:56N 31°42' E 121°09'0 1.1
2017-Nov-08 12:29N 31°41' E 121°09'3 7.1
2017-Nov-08 12:00N 31°40' E 121°13'3 6.4
2017-Nov-08 11:30N 31°38' E 121°16'0 0.5
2017-Nov-08 10:57N 31°38' E 121°16'0 0.1
2017-Nov-08 10:30N 31°38' E 121°16'0 0.3
2017-Nov-08 09:57N 31°38' E 121°16'0 0.1
2017-Nov-08 09:24N 31°38' E 121°16'0 0.0
2017-Nov-08 09:00N 31°38' E 121°16'0 0.0
2017-Nov-08 08:30N 31°38' E 121°16'0 0.0
2017-Nov-08 07:57N 31°38' E 121°16'0 0.0
2017-Nov-08 07:30N 31°38' E 121°16'0 0.0
2017-Nov-08 07:00N 31°38' E 121°16'0 0.1
2017-Nov-08 06:27N 31°38' E 121°16'0 0.0
2017-Nov-08 06:00N 31°38' E 121°16'0 0.2
2017-Nov-08 05:21N 31°38' E 121°16'0 0.5
2017-Nov-08 04:54N 31°38' E 121°16'0 0.1
2017-Nov-08 04:12N 31°38' E 121°16'0 0.0
2017-Nov-08 04:00N 31°38' E 121°16'0 0.0
2017-Nov-08 03:30N 31°38' E 121°16'0 0.0
2017-Nov-08 02:57N 31°38' E 121°16'0 0.0
2017-Nov-08 02:27N 31°38' E 121°16'0 0.0
2017-Nov-08 02:00N 31°38' E 121°16'0 0.0
2017-Nov-08 01:30N 31°38' E 121°16'0 0.0
2017-Nov-08 00:57N 31°38' E 121°16'0 0.0
2017-Nov-08 00:30N 31°38' E 121°16'0 0.0
2017-Nov-07 23:57N 31°38' E 121°16'0 0.1
2017-Nov-07 23:30N 31°38' E 121°16'0 0.0
2017-Nov-07 23:00N 31°38' E 121°16'0 0.1
2017-Nov-07 22:24N 31°38' E 121°16'0 0.0
2017-Nov-07 22:00N 31°38' E 121°16'0 0.0
2017-Nov-07 21:30N 31°38' E 121°16'0 0.2
2017-Nov-07 21:00N 31°38' E 121°16'0 0.2
2017-Nov-07 20:30N 31°38' E 121°16'0 0.0
2017-Nov-07 20:00N 31°38' E 121°16'0 0.2
2017-Nov-07 19:18N 31°38' E 121°16'0 0.1
2017-Nov-07 18:57N 31°38' E 121°16'0 0.0
2017-Nov-07 18:24N 31°38' E 121°16'0 0.1
2017-Nov-07 18:00N 31°38' E 121°16'0 0.3
2017-Nov-07 17:30N 31°38' E 121°16'0 0.2
2017-Nov-07 16:57N 31°38' E 121°16'0 0.0
2017-Nov-07 16:24N 31°38' E 121°16'0 0.0
2017-Nov-07 16:00N 31°38' E 121°16'0 0.0
2017-Nov-07 15:24N 31°38' E 121°16'0 0.1
2017-Nov-07 15:00N 31°38' E 121°16'0 0.1
2017-Nov-07 14:30N 31°38' E 121°16'0 0.0
2017-Nov-07 13:57N 31°38' E 121°16'0 0.0
2017-Nov-07 13:30N 31°38' E 121°16'0 0.0
2017-Nov-07 13:00N 31°38' E 121°16'0 0.0
2017-Nov-07 12:24N 31°38' E 121°16'0 0.0
2017-Nov-07 12:00N 31°38' E 121°16'0 0.1
2017-Nov-07 11:21N 31°38' E 121°16'0 0.2
2017-Nov-07 11:00N 31°38' E 121°16'0 0.1
2017-Nov-07 10:30N 31°38' E 121°16'0 0.0
2017-Nov-07 10:00N 31°38' E 121°16'0 0.1
2017-Nov-07 09:30N 31°38' E 121°16'0 0.3
2017-Nov-07 08:48N 31°38' E 121°16'0 0.1
2017-Nov-07 08:21N 31°38' E 121°16'0 0.0
2017-Nov-07 08:00N 31°38' E 121°16'0 0.0
2017-Nov-07 07:27N 31°38' E 121°16'0 0.0
2017-Nov-07 06:51N 31°38' E 121°16'0 0.0
2017-Nov-07 06:21N 31°38' E 121°16'0 0.0
2017-Nov-07 06:00N 31°38' E 121°16'0 0.1
2017-Nov-07 05:06N 31°38' E 121°16'0 0.5
2017-Nov-07 04:51N 31°38' E 121°16'0 0.3
2017-Nov-07 04:27N 31°38' E 121°16'0 0.1
2017-Nov-07 04:00N 31°38' E 121°16'0 0.0
2017-Nov-07 03:27N 31°38' E 121°16'0 0.0
2017-Nov-07 02:54N 31°38' E 121°16'0 0.0
2017-Nov-07 02:24N 31°38' E 121°16'0 0.0
2017-Nov-07 02:00N 31°38' E 121°16'0 0.0
2017-Nov-07 01:30N 31°38' E 121°16'0 0.0
2017-Nov-07 01:00N 31°38' E 121°16'0 0.1
2017-Nov-07 00:30N 31°38' E 121°16'0 0.1
2017-Nov-07 00:00N 31°38' E 121°16'0 0.1
2017-Nov-06 23:24N 31°38' E 121°16'0 0.0
2017-Nov-06 22:57N 31°38' E 121°16'0 0.0
2017-Nov-06 22:30N 31°38' E 121°16'0 0.0
2017-Nov-06 22:00N 31°38' E 121°16'0 0.0
2017-Nov-06 21:30N 31°38' E 121°16'0 0.0
2017-Nov-06 21:00N 31°38' E 121°16'0 0.4
2017-Nov-06 20:30N 31°38' E 121°16'0 0.0
2017-Nov-06 02:30N 31°38' E 121°16'0 0.0
2017-Nov-06 02:00N 31°38' E 121°16'0 0.0
2017-Nov-06 01:30N 31°38' E 121°16'0 0.1
2017-Nov-06 00:57N 31°38' E 121°16'0 0.0
2017-Nov-06 00:30N 31°38' E 121°16'0 0.1
2017-Nov-06 00:00N 31°38' E 121°16'0 0.2
2017-Nov-05 23:27N 31°38' E 121°16'0 0.3
2017-Nov-05 23:00N 31°38' E 121°16'0 0.0
2017-Nov-05 22:30N 31°38' E 121°16'0 0.1
2017-Nov-05 21:57N 31°38' E 121°16'0 0.1
2017-Nov-05 21:30N 31°38' E 121°16'0 0.1
2017-Nov-05 20:21N 31°38' E 121°16'0 0.4
2017-Nov-05 20:00N 31°38' E 121°16'0 0.2
2017-Nov-05 19:24N 31°38' E 121°16'0 0.1
2017-Nov-05 18:54N 31°38' E 121°16'0 0.1
2017-Nov-05 18:30N 31°38' E 121°16'0 0.0
2017-Nov-05 18:00N 31°38' E 121°16'0 0.1
2017-Nov-05 17:30N 31°38' E 121°16'0 0.0
2017-Nov-05 17:00N 31°38' E 121°16'0 0.0
2017-Nov-05 16:27N 31°38' E 121°16'0 0.6
2017-Nov-05 15:57N 31°38' E 121°16'0 0.0
2017-Nov-05 15:30N 31°38' E 121°16'0 0.1
2017-Nov-05 15:00N 31°38' E 121°16'0 0.0
2017-Nov-05 14:30N 31°38' E 121°16'0 0.0
2017-Nov-05 13:48N 31°38' E 121°16'0 0.0
2017-Nov-05 13:24N 31°38' E 121°16'0 0.0
2017-Nov-05 13:00N 31°38' E 121°16'0 0.0
2017-Nov-05 12:27N 31°38' E 121°16'0 0.0
2017-Nov-05 12:00N 31°38' E 121°16'0 0.0
2017-Nov-05 11:30N 31°38' E 121°16'0 0.0
2017-Nov-05 11:00N 31°38' E 121°16'0 0.0
2017-Nov-05 10:27N 31°38' E 121°16'0 0.1
2017-Nov-05 10:00N 31°38' E 121°16'0 0.1
2017-Nov-05 09:30N 31°38' E 121°16'0 0.1
2017-Nov-05 09:00N 31°38' E 121°16'0 0.1
2017-Nov-05 08:30N 31°38' E 121°16'0 0.3
2017-Nov-05 07:57N 31°38' E 121°16'0 0.1
2017-Nov-05 07:24N 31°38' E 121°16'0 0.1
2017-Nov-05 07:00N 31°38' E 121°16'0 0.0
2017-Nov-05 06:30N 31°38' E 121°16'0 0.0
2017-Nov-05 05:51N 31°38' E 121°16'0 0.2
2017-Nov-05 05:30N 31°38' E 121°16'0 0.0
2017-Nov-05 04:54N 31°38' E 121°16'0 0.0
2017-Nov-05 04:27N 31°38' E 121°16'0 0.0
2017-Nov-05 03:48N 31°38' E 121°16'0 0.5
2017-Nov-05 03:30N 31°38' E 121°16'0 0.3
2017-Nov-05 03:00N 31°38' E 121°16'0 0.1
2017-Nov-05 02:30N 31°38' E 121°16'0 0.0
2017-Nov-05 01:57N 31°38' E 121°16'0 0.0
2017-Nov-05 01:30N 31°38' E 121°16'0 0.0
2017-Nov-05 00:57N 31°38' E 121°16'0 0.0
2017-Nov-05 00:30N 31°38' E 121°16'0 0.0
2017-Nov-05 00:00N 31°38' E 121°16'0 0.0
2017-Nov-04 23:24N 31°38' E 121°16'0 0.0
2017-Nov-04 23:00N 31°38' E 121°16'0 0.0
2017-Nov-04 22:30N 31°38' E 121°16'0 0.0
2017-Nov-04 22:00N 31°38' E 121°16'0 0.1
2017-Nov-04 21:27N 31°38' E 121°16'0 0.0
2017-Nov-04 20:54N 31°38' E 121°16'0 0.1
2017-Nov-04 20:24N 31°38' E 121°16'0 0.0
2017-Nov-04 19:45N 31°38' E 121°16'0 0.0
2017-Nov-04 19:30N 31°38' E 121°16'0 0.2
2017-Nov-04 18:30N 31°38' E 121°16'0 0.1
2017-Nov-04 18:00N 31°38' E 121°16'0 0.3
2017-Nov-04 17:26N 31°38' E 121°16'2 4.6
2017-Nov-04 17:00N 31°36' E 121°17'4 8.8
2017-Nov-04 16:30N 31°33' E 121°20'510.8
2017-Nov-04 16:00N 31°30' E 121°26'510.9
2017-Nov-04 15:30N 31°26' E 121°30'510.1
2017-Nov-04 15:00N 31°23' E 121°35'5 9.2
2017-Nov-04 14:30N 31°21' E 121°40'4 8.4
2017-Nov-04 14:00N 31°19' E 121°44'510.8
2017-Nov-04 13:30N 31°17' E 121°50'510.7
2017-Nov-04 13:00N 31°15' E 121°56'610.6
2017-Nov-04 12:25N 31°14' E 122°03'4 9.2
2017-Nov-04 12:00N 31°13' E 122°07'4 7.7
2017-Nov-04 11:30N 31°11' E 122°11'4 8.3
2017-Nov-04 10:58N 31°08' E 122°15'4 8.1
2017-Nov-04 10:30N 31°06' E 122°19'  
Track history (hours):
 
Tides and Currents Weather Stations Pressure Air Temp Water Temp Dewpoint Dewpoint Depression Visibility Wind Speed Wind Dir Waves Ship Positions

English Bay

Last reported at 2017-Nov-11 11:51 UTC. Time now 2017-Nov-24 20:43 UTC.
Position N 31°06' E 122°20'.
Warning: this ship's position is 13 days out of date.

Length 177 m; draft 9.8 m.

Type: Cargo ship. MMSI: 477101000.

Date/timePositionNaut miles runAvg speedWind from/ knotsBaromVisibWave heightAir tempDewpointWater temp
2017-Nov-11 11:51N 31°06' E 122°20'513.0
2017-Nov-11 11:27N 31°08' E 122°14'612.4
2017-Nov-11 10:59N 31°12' E 122°09'511.6
2017-Nov-11 10:30N 31°14' E 122°03'611.7
2017-Nov-11 10:00N 31°15' E 121°56'511.0
2017-Nov-11 09:31N 31°17' E 121°50'510.6
2017-Nov-11 09:00N 31°19' E 121°44'5 9.1
2017-Nov-11 08:30N 31°21' E 121°40'5 9.8
2017-Nov-11 08:00N 31°23' E 121°35'3 6.9
2017-Nov-11 07:30N 31°25' E 121°31'3 6.7
2017-Nov-11 07:00N 31°27' E 121°28'4 8.9
2017-Nov-11 06:30N 31°30' E 121°25'611.7
2017-Nov-11 06:00N 31°34' E 121°19'611.7
2017-Nov-11 05:30N 31°38' E 121°15'1 1.3
2017-Nov-11 04:56N 31°39' E 121°15'0 0.0
2017-Nov-11 04:26N 31°39' E 121°15'0 0.0
2017-Nov-11 03:59N 31°39' E 121°15'0 0.0
2017-Nov-11 03:29N 31°39' E 121°15'0 0.0
2017-Nov-11 02:59N 31°39' E 121°15'0 0.1
2017-Nov-11 02:14N 31°39' E 121°15'0 0.0
2017-Nov-11 01:41N 31°39' E 121°15'0 0.0
2017-Nov-11 01:29N 31°39' E 121°15'0 0.0
2017-Nov-11 00:59N 31°39' E 121°15'1 1.9
2017-Nov-11 00:30N 31°39' E 121°14'4 8.9
2017-Nov-11 00:01N 31°42' E 121°09'1 0.8
2017-Nov-10 23:20N 31°42' E 121°09'0 0.0
2017-Nov-10 22:20N 31°42' E 121°09'0 0.0
2017-Nov-10 21:53N 31°42' E 121°09'0 0.0
2017-Nov-10 21:29N 31°42' E 121°09'0 0.0
2017-Nov-10 20:50N 31°42' E 121°09'0 0.0
2017-Nov-10 20:29N 31°42' E 121°09'0 0.0
2017-Nov-10 19:56N 31°42' E 121°09'0 0.0
2017-Nov-10 19:29N 31°42' E 121°09'0 0.0
2017-Nov-10 18:56N 31°42' E 121°09'0 0.0
2017-Nov-10 18:29N 31°42' E 121°09'0 0.0
2017-Nov-10 17:41N 31°42' E 121°09'0 0.0
2017-Nov-10 17:14N 31°42' E 121°09'0 0.0
2017-Nov-10 16:59N 31°42' E 121°09'0 0.0
2017-Nov-10 16:08N 31°42' E 121°09'0 0.0
2017-Nov-10 15:59N 31°42' E 121°09'0 0.0
2017-Nov-10 15:29N 31°42' E 121°09'0 0.0
2017-Nov-10 14:53N 31°42' E 121°09'0 0.0
2017-Nov-10 14:29N 31°42' E 121°09'0 0.0
2017-Nov-10 13:59N 31°42' E 121°09'0 0.0
2017-Nov-10 13:20N 31°42' E 121°09'0 0.0
2017-Nov-10 12:56N 31°42' E 121°09'0 0.0
2017-Nov-10 12:26N 31°42' E 121°09'0 0.0
2017-Nov-10 11:53N 31°42' E 121°09'0 0.0
2017-Nov-10 11:29N 31°42' E 121°09'0 0.0
2017-Nov-10 10:59N 31°42' E 121°09'0 0.0
2017-Nov-10 10:23N 31°42' E 121°09'0 0.0
2017-Nov-10 09:59N 31°42' E 121°09'0 0.0
2017-Nov-10 09:29N 31°42' E 121°09'0 0.0
2017-Nov-10 08:41N 31°42' E 121°09'0 0.0
2017-Nov-10 08:23N 31°42' E 121°09'0 0.0
2017-Nov-10 07:56N 31°42' E 121°09'0 0.0
2017-Nov-10 07:26N 31°42' E 121°09'0 0.0
2017-Nov-10 06:47N 31°42' E 121°09'0 0.0
2017-Nov-10 06:23N 31°42' E 121°09'0 0.0
2017-Nov-10 05:59N 31°42' E 121°09'0 0.0
2017-Nov-10 05:26N 31°42' E 121°09'0 0.0
2017-Nov-10 04:41N 31°42' E 121°09'0 0.0
2017-Nov-10 04:14N 31°42' E 121°09'0 0.0
2017-Nov-10 03:47N 31°42' E 121°09'0 0.0
2017-Nov-10 03:29N 31°42' E 121°09'0 0.0
2017-Nov-10 02:59N 31°42' E 121°09'0 0.0
2017-Nov-10 02:29N 31°42' E 121°09'0 0.0
2017-Nov-10 01:53N 31°42' E 121°09'0 0.0
2017-Nov-10 01:29N 31°42' E 121°09'0 0.0
2017-Nov-10 00:59N 31°42' E 121°09'0 0.0
2017-Nov-10 00:23N 31°42' E 121°09'0 0.0
2017-Nov-09 23:59N 31°42' E 121°09'0 0.0
2017-Nov-09 23:26N 31°42' E 121°09'0 0.0
2017-Nov-09 22:59N 31°42' E 121°09'0 0.0
2017-Nov-09 22:20N 31°42' E 121°09'0 0.0
2017-Nov-09 21:56N 31°42' E 121°09'0 0.0
2017-Nov-09 21:29N 31°42' E 121°09'0 0.0
2017-Nov-09 20:59N 31°42' E 121°09'0 0.0
2017-Nov-09 20:17N 31°42' E 121°09'0 0.0
2017-Nov-09 19:59N 31°42' E 121°09'0 0.0
2017-Nov-09 19:29N 31°42' E 121°09'0 0.0
2017-Nov-09 18:56N 31°42' E 121°09'0 0.0
2017-Nov-09 18:14N 31°42' E 121°09'0 0.0
2017-Nov-09 17:38N 31°42' E 121°09'0 0.0
2017-Nov-09 17:23N 31°42' E 121°09'0 0.0
2017-Nov-09 16:59N 31°42' E 121°09'0 0.0
2017-Nov-09 16:11N 31°42' E 121°09'0 0.0
2017-Nov-09 15:59N 31°42' E 121°09'0 0.0
2017-Nov-09 15:23N 31°42' E 121°09'0 0.0
2017-Nov-09 13:38N 31°42' E 121°09'0 0.0
2017-Nov-09 13:29N 31°42' E 121°09'0 0.0
2017-Nov-09 12:44N 31°42' E 121°09'0 0.0
2017-Nov-09 12:29N 31°42' E 121°09'0 0.0
2017-Nov-09 11:56N 31°42' E 121°09'0 0.0
2017-Nov-09 11:23N 31°42' E 121°09'0 0.0
2017-Nov-09 10:47N 31°42' E 121°09'0 0.0
2017-Nov-09 10:26N 31°42' E 121°09'0 0.0
2017-Nov-09 09:59N 31°42' E 121°09'0 0.0
2017-Nov-09 09:23N 31°42' E 121°09'0 0.0
2017-Nov-09 08:56N 31°42' E 121°09'0 0.0
2017-Nov-09 08:14N 31°42' E 121°09'0 0.0
2017-Nov-09 07:50N 31°42' E 121°09'0 0.0
2017-Nov-09 07:20N 31°42' E 121°09'0 0.0
2017-Nov-09 06:50N 31°42' E 121°09'0 0.0
2017-Nov-09 05:20N 31°42' E 121°09'0 0.0
2017-Nov-09 04:56N 31°42' E 121°09'0 0.0
2017-Nov-09 04:17N 31°42' E 121°09'0 0.0
2017-Nov-09 03:59N 31°42' E 121°09'0 0.0
2017-Nov-09 03:02N 31°42' E 121°09'0 0.0
2017-Nov-09 02:14N 31°42' E 121°09'0 0.0
2017-Nov-09 01:32N 31°42' E 121°09'0 0.0
2017-Nov-09 01:17N 31°42' E 121°09'0 0.0
2017-Nov-09 00:44N 31°42' E 121°09'0 0.0
2017-Nov-09 00:23N 31°42' E 121°09'0 0.0
2017-Nov-08 23:59N 31°42' E 121°09'0 0.0
2017-Nov-08 23:26N 31°42' E 121°09'0 0.0
2017-Nov-08 22:59N 31°42' E 121°09'0 0.0
2017-Nov-08 22:29N 31°42' E 121°09'0 0.0
2017-Nov-08 21:59N 31°42' E 121°09'0 0.0
2017-Nov-08 21:29N 31°42' E 121°09'0 0.0
2017-Nov-08 20:53N 31°42' E 121°09'0 0.0
2017-Nov-08 20:26N 31°42' E 121°09'0 0.0
2017-Nov-08 19:56N 31°42' E 121°09'0 0.0
2017-Nov-08 19:29N 31°42' E 121°09'0 0.0
2017-Nov-08 18:59N 31°42' E 121°09'0 0.0
2017-Nov-08 18:29N 31°42' E 121°09'0 0.0
2017-Nov-08 17:59N 31°42' E 121°09'0 0.0
2017-Nov-08 17:20N 31°42' E 121°09'0 0.0
2017-Nov-08 16:56N 31°42' E 121°09'0 0.0
2017-Nov-08 16:29N 31°42' E 121°09'0 0.0
2017-Nov-08 15:56N 31°42' E 121°09'0 0.0
2017-Nov-08 15:29N 31°42' E 121°09'0 0.0
2017-Nov-08 14:50N 31°42' E 121°09'0 0.0
2017-Nov-08 14:29N 31°42' E 121°09'0 0.0
2017-Nov-08 13:56N 31°42' E 121°09'0 0.0
2017-Nov-08 13:20N 31°42' E 121°09'0 0.0
2017-Nov-08 12:56N 31°42' E 121°09'0 1.1
2017-Nov-08 12:29N 31°41' E 121°09'3 7.1
2017-Nov-08 12:00N 31°40' E 121°13'3 6.4
2017-Nov-08 11:30N 31°38' E 121°16'0 0.5
2017-Nov-08 10:57N 31°38' E 121°16'0 0.1
2017-Nov-08 10:30N 31°38' E 121°16'0 0.3
2017-Nov-08 09:57N 31°38' E 121°16'0 0.1
2017-Nov-08 09:24N 31°38' E 121°16'0 0.0
2017-Nov-08 09:00N 31°38' E 121°16'0 0.0
2017-Nov-08 08:30N 31°38' E 121°16'0 0.0
2017-Nov-08 07:57N 31°38' E 121°16'0 0.0
2017-Nov-08 07:30N 31°38' E 121°16'0 0.0
2017-Nov-08 07:00N 31°38' E 121°16'0 0.1
2017-Nov-08 06:27N 31°38' E 121°16'0 0.0
2017-Nov-08 06:00N 31°38' E 121°16'0 0.2
2017-Nov-08 05:21N 31°38' E 121°16'0 0.5
2017-Nov-08 04:54N 31°38' E 121°16'0 0.1
2017-Nov-08 04:12N 31°38' E 121°16'0 0.0
2017-Nov-08 04:00N 31°38' E 121°16'0 0.0
2017-Nov-08 03:30N 31°38' E 121°16'0 0.0
2017-Nov-08 02:57N 31°38' E 121°16'0 0.0
2017-Nov-08 02:27N 31°38' E 121°16'0 0.0
2017-Nov-08 02:00N 31°38' E 121°16'0 0.0
2017-Nov-08 01:30N 31°38' E 121°16'0 0.0
2017-Nov-08 00:57N 31°38' E 121°16'0 0.0
2017-Nov-08 00:30N 31°38' E 121°16'0 0.0
2017-Nov-07 23:57N 31°38' E 121°16'0 0.1
2017-Nov-07 23:30N 31°38' E 121°16'0 0.0
2017-Nov-07 23:00N 31°38' E 121°16'0 0.1
2017-Nov-07 22:24N 31°38' E 121°16'0 0.0
2017-Nov-07 22:00N 31°38' E 121°16'0 0.0
2017-Nov-07 21:30N 31°38' E 121°16'0 0.2
2017-Nov-07 21:00N 31°38' E 121°16'0 0.2
2017-Nov-07 20:30N 31°38' E 121°16'0 0.0
2017-Nov-07 20:00N 31°38' E 121°16'0 0.2
2017-Nov-07 19:18N 31°38' E 121°16'0 0.1
2017-Nov-07 18:57N 31°38' E 121°16'0 0.0
2017-Nov-07 18:24N 31°38' E 121°16'0 0.1
2017-Nov-07 18:00N 31°38' E 121°16'0 0.3
2017-Nov-07 17:30N 31°38' E 121°16'0 0.2
2017-Nov-07 16:57N 31°38' E 121°16'0 0.0
2017-Nov-07 16:24N 31°38' E 121°16'0 0.0
2017-Nov-07 16:00N 31°38' E 121°16'0 0.0
2017-Nov-07 15:24N 31°38' E 121°16'0 0.1
2017-Nov-07 15:00N 31°38' E 121°16'0 0.1
2017-Nov-07 14:30N 31°38' E 121°16'0 0.0
2017-Nov-07 13:57N 31°38' E 121°16'0 0.0
2017-Nov-07 13:30N 31°38' E 121°16'0 0.0
2017-Nov-07 13:00N 31°38' E 121°16'0 0.0
2017-Nov-07 12:24N 31°38' E 121°16'0 0.0
2017-Nov-07 12:00N 31°38' E 121°16'0 0.1
2017-Nov-07 11:21N 31°38' E 121°16'0 0.2
2017-Nov-07 11:00N 31°38' E 121°16'0 0.1
2017-Nov-07 10:30N 31°38' E 121°16'0 0.0
2017-Nov-07 10:00N 31°38' E 121°16'0 0.1
2017-Nov-07 09:30N 31°38' E 121°16'0 0.3
2017-Nov-07 08:48N 31°38' E 121°16'0 0.1
2017-Nov-07 08:21N 31°38' E 121°16'0 0.0
2017-Nov-07 08:00N 31°38' E 121°16'0 0.0
2017-Nov-07 07:27N 31°38' E 121°16'0 0.0
2017-Nov-07 06:51N 31°38' E 121°16'0 0.0
2017-Nov-07 06:21N 31°38' E 121°16'0 0.0
2017-Nov-07 06:00N 31°38' E 121°16'0 0.1
2017-Nov-07 05:06N 31°38' E 121°16'0 0.5
2017-Nov-07 04:51N 31°38' E 121°16'0 0.3
2017-Nov-07 04:27N 31°38' E 121°16'0 0.1
2017-Nov-07 04:00N 31°38' E 121°16'0 0.0
2017-Nov-07 03:27N 31°38' E 121°16'0 0.0
2017-Nov-07 02:54N 31°38' E 121°16'0 0.0
2017-Nov-07 02:24N 31°38' E 121°16'0 0.0
2017-Nov-07 02:00N 31°38' E 121°16'0 0.0
2017-Nov-07 01:30N 31°38' E 121°16'0 0.0
2017-Nov-07 01:00N 31°38' E 121°16'0 0.1
2017-Nov-07 00:30N 31°38' E 121°16'0 0.1
2017-Nov-07 00:00N 31°38' E 121°16'0 0.1
2017-Nov-06 23:24N 31°38' E 121°16'0 0.0
2017-Nov-06 22:57N 31°38' E 121°16'0 0.0
2017-Nov-06 22:30N 31°38' E 121°16'0 0.0
2017-Nov-06 22:00N 31°38' E 121°16'0 0.0
2017-Nov-06 21:30N 31°38' E 121°16'0 0.0
2017-Nov-06 21:00N 31°38' E 121°16'0 0.4
2017-Nov-06 20:30N 31°38' E 121°16'0 0.0
2017-Nov-06 02:30N 31°38' E 121°16'0 0.0
2017-Nov-06 02:00N 31°38' E 121°16'0 0.0
2017-Nov-06 01:30N 31°38' E 121°16'0 0.1
2017-Nov-06 00:57N 31°38' E 121°16'0 0.0
2017-Nov-06 00:30N 31°38' E 121°16'0 0.1
2017-Nov-06 00:00N 31°38' E 121°16'0 0.2
2017-Nov-05 23:27N 31°38' E 121°16'0 0.3
2017-Nov-05 23:00N 31°38' E 121°16'0 0.0
2017-Nov-05 22:30N 31°38' E 121°16'0 0.1
2017-Nov-05 21:57N 31°38' E 121°16'0 0.1
2017-Nov-05 21:30N 31°38' E 121°16'0 0.1
2017-Nov-05 20:21N 31°38' E 121°16'0 0.4
2017-Nov-05 20:00N 31°38' E 121°16'0 0.2
2017-Nov-05 19:24N 31°38' E 121°16'0 0.1
2017-Nov-05 18:54N 31°38' E 121°16'0 0.1
2017-Nov-05 18:30N 31°38' E 121°16'0 0.0
2017-Nov-05 18:00N 31°38' E 121°16'0 0.1
2017-Nov-05 17:30N 31°38' E 121°16'0 0.0
2017-Nov-05 17:00N 31°38' E 121°16'0 0.0
2017-Nov-05 16:27N 31°38' E 121°16'0 0.6
2017-Nov-05 15:57N 31°38' E 121°16'0 0.0
2017-Nov-05 15:30N 31°38' E 121°16'0 0.1
2017-Nov-05 15:00N 31°38' E 121°16'0 0.0
2017-Nov-05 14:30N 31°38' E 121°16'0 0.0
2017-Nov-05 13:48N 31°38' E 121°16'0 0.0
2017-Nov-05 13:24N 31°38' E 121°16'0 0.0
2017-Nov-05 13:00N 31°38' E 121°16'0 0.0
2017-Nov-05 12:27N 31°38' E 121°16'0 0.0
2017-Nov-05 12:00N 31°38' E 121°16'0 0.0
2017-Nov-05 11:30N 31°38' E 121°16'0 0.0
2017-Nov-05 11:00N 31°38' E 121°16'0 0.0
2017-Nov-05 10:27N 31°38' E 121°16'0 0.1
2017-Nov-05 10:00N 31°38' E 121°16'0 0.1
2017-Nov-05 09:30N 31°38' E 121°16'0 0.1
2017-Nov-05 09:00N 31°38' E 121°16'0 0.1
2017-Nov-05 08:30N 31°38' E 121°16'0 0.3
2017-Nov-05 07:57N 31°38' E 121°16'0 0.1
2017-Nov-05 07:24N 31°38' E 121°16'0 0.1
2017-Nov-05 07:00N 31°38' E 121°16'0 0.0
2017-Nov-05 06:30N 31°38' E 121°16'0 0.0
2017-Nov-05 05:51N 31°38' E 121°16'0 0.2
2017-Nov-05 05:30N 31°38' E 121°16'0 0.0
2017-Nov-05 04:54N 31°38' E 121°16'0 0.0
2017-Nov-05 04:27N 31°38' E 121°16'0 0.0
2017-Nov-05 03:48N 31°38' E 121°16'0 0.5
2017-Nov-05 03:30N 31°38' E 121°16'0 0.3
2017-Nov-05 03:00N 31°38' E 121°16'0 0.1
2017-Nov-05 02:30N 31°38' E 121°16'0 0.0
2017-Nov-05 01:57N 31°38' E 121°16'0 0.0
2017-Nov-05 01:30N 31°38' E 121°16'0 0.0
2017-Nov-05 00:57N 31°38' E 121°16'0 0.0
2017-Nov-05 00:30N 31°38' E 121°16'0 0.0
2017-Nov-05 00:00N 31°38' E 121°16'0 0.0
2017-Nov-04 23:24N 31°38' E 121°16'0 0.0
2017-Nov-04 23:00N 31°38' E 121°16'0 0.0
2017-Nov-04 22:30N 31°38' E 121°16'0 0.0
2017-Nov-04 22:00N 31°38' E 121°16'0 0.1
2017-Nov-04 21:27N 31°38' E 121°16'0 0.0
2017-Nov-04 20:54N 31°38' E 121°16'0 0.1
2017-Nov-04 20:24N 31°38' E 121°16'0 0.0
2017-Nov-04 19:45N 31°38' E 121°16'0 0.0
2017-Nov-04 19:30N 31°38' E 121°16'0 0.2
2017-Nov-04 18:30N 31°38' E 121°16'0 0.1
2017-Nov-04 18:00N 31°38' E 121°16'0 0.3
2017-Nov-04 17:26N 31°38' E 121°16'2 4.6
2017-Nov-04 17:00N 31°36' E 121°17'4 8.8
2017-Nov-04 16:30N 31°33' E 121°20'510.8
2017-Nov-04 16:00N 31°30' E 121°26'510.9
2017-Nov-04 15:30N 31°26' E 121°30'510.1
2017-Nov-04 15:00N 31°23' E 121°35'5 9.2
2017-Nov-04 14:30N 31°21' E 121°40'4 8.4
2017-Nov-04 14:00N 31°19' E 121°44'510.8
2017-Nov-04 13:30N 31°17' E 121°50'510.7
2017-Nov-04 13:00N 31°15' E 121°56'610.6
2017-Nov-04 12:25N 31°14' E 122°03'4 9.2
2017-Nov-04 12:00N 31°13' E 122°07'4 7.7
2017-Nov-04 11:30N 31°11' E 122°11'4 8.3
2017-Nov-04 10:58N 31°08' E 122°15'4 8.1
2017-Nov-04 10:30N 31°06' E 122°19'  

Dump ship's entire track history